Portada
METAR-TAF:

METAR-TAF

Aeropuertos :

Tanabe, Japón

latitud: 33-44N, longitud: 135-23E, altitud: 105 m

Observación

El informe se hizo hace 45 minutos, a las 02:00 UTC
Viento 13 kt del este-sureste
Temperatura 24°C
Humedad 65%
Presión 1014 hPa
Visibilidad 10 km o más
Escasas nubes a una altura de 2500 ft
Nubes dispersas a una altura de 9000 ft

METAR: RJBD 220200Z 11013KT 9999 FEW025 SCT090 24/17 Q1014

Hora: 11:45 (02:45 UTC)


TAF: falta

Observaciones y pronósticos meteorológicos de más de 4000 aeropuertos (mensajes METAR y TAF).

Los puntos amarillos y rojos representan las estaciones disponibles.

Ponga el ratón en el punto deseado para ver el nombre de la estación.

Haga clic para ver las observaciones y los pronósticos meteorológicos.

Para cambiar el mapa : haga clic en los botones verdes con una cruz de color negro para hacer un zoom, en el botón verde con un guión para alejar o en las flechas verdes para mapas adyacentes.


METAR-TAF: